Time;durP1;ratioP1;P1;durP2;ratioP2;P2;SDS_P1;SDS_P2;PMS_P1;PMS_P2;Temp;Humidity;BMP_temperature;BMP_pressure;BME280_temperature;BME280_humidity;BME280_pressure;Samples;Min_cycle;Max_cycle;Signal;HPM_P1;HPM_P2
2021/04/27 00:01:18;;;;;;;7.95;3.83;;;;;;;4.22;68.50;101752.28;5038578;28;20062;-69
2021/04/27 00:03:45;;;;;;;12.15;4.47;;;;;;;4.19;68.37;101746.06;5039369;28;20069;-74
2021/04/27 00:06:12;;;;;;;7.82;3.85;;;;;;;4.12;68.03;101742.50;5040553;28;20060;-74
2021/04/27 00:08:40;;;;;;;12.60;4.78;;;;;;;4.12;68.55;101745.13;5041119;28;20056;-74
2021/04/27 00:11:07;;;;;;;9.23;4.45;;;;;;;4.06;68.59;101735.38;5038112;28;20052;-74
2021/04/27 00:13:35;;;;;;;9.68;4.07;;;;;;;4.05;69.04;101731.00;5038973;28;20061;-74
2021/04/27 00:16:03;;;;;;;10.32;4.30;;;;;;;4.00;69.10;101729.16;5036747;28;20375;-75
2021/04/27 00:18:30;;;;;;;10.55;4.28;;;;;;;3.97;69.35;101724.75;5039188;28;20065;-75
2021/04/27 00:20:57;;;;;;;9.65;4.10;;;;;;;3.93;69.35;101723.84;5038287;28;20136;-73
2021/04/27 00:23:24;;;;;;;9.57;4.13;;;;;;;3.88;69.27;101717.63;5035032;28;20068;-75
2021/04/27 00:25:51;;;;;;;8.20;3.78;;;;;;;3.85;69.13;101712.31;5035885;28;20064;-74
2021/04/27 00:28:19;;;;;;;12.35;4.68;;;;;;;3.82;69.45;101707.00;5036771;28;20060;-75
2021/04/27 00:30:45;;;;;;;9.63;3.80;;;;;;;3.80;69.79;101711.38;5035527;28;20118;-74
2021/04/27 00:33:14;;;;;;;8.65;4.15;;;;;;;3.82;70.04;101707.00;5033084;28;20313;-74
2021/04/27 00:35:40;;;;;;;13.60;4.53;;;;;;;3.82;70.16;101708.75;5040210;28;20348;-74
2021/04/27 00:38:07;;;;;;;11.32;3.85;;;;;;;3.78;70.49;101706.94;5034491;28;20061;-73
2021/04/27 00:40:34;;;;;;;13.20;4.18;;;;;;;3.75;70.23;101705.16;5037378;28;20061;-74
2021/04/27 00:43:02;;;;;;;12.50;5.03;;;;;;;3.72;70.13;101694.56;5035971;28;20162;-74
2021/04/27 00:45:30;;;;;;;10.50;4.72;;;;;;;3.68;70.58;101693.66;5038646;28;20433;-74
2021/04/27 00:47:58;;;;;;;8.25;4.03;;;;;;;3.69;70.59;101692.78;5035667;28;20092;-74
2021/04/27 00:50:29;;;;;;;11.88;4.32;;;;;;;3.67;70.68;101691.88;5038877;28;20056;-74
2021/04/27 00:52:57;;;;;;;11.07;4.68;;;;;;;3.68;70.54;101687.50;5035163;28;20053;-74
2021/04/27 00:55:25;;;;;;;9.15;4.47;;;;;;;3.62;71.51;101688.31;5037976;28;20089;-73
2021/04/27 00:57:52;;;;;;;8.95;4.35;;;;;;;3.58;71.37;101686.53;5037675;28;20060;-73
2021/04/27 01:00:22;;;;;;;7.65;4.25;;;;;;;3.61;70.78;101683.00;5051809;28;20216;-73
2021/04/27 01:02:49;;;;;;;12.85;4.20;;;;;;;3.56;71.81;101680.34;5034970;28;20143;-76
2021/04/27 01:05:19;;;;;;;11.57;4.63;;;;;;;3.53;71.81;101678.56;5037338;28;20262;-75
2021/04/27 01:07:56;;;;;;;10.77;4.60;;;;;;;3.50;71.35;101678.50;5036949;28;20363;-75
2021/04/27 01:10:29;;;;;;;13.60;4.85;;;;;;;3.47;71.67;101673.19;5039599;28;20549;-74
2021/04/27 01:13:04;;;;;;;10.95;4.30;;;;;;;3.43;71.92;101671.41;5058705;28;20072;-74
2021/04/27 01:15:32;;;;;;;9.70;4.50;;;;;;;3.31;72.31;101666.00;5035073;28;20430;-74
2021/04/27 01:18:07;;;;;;;9.77;4.47;;;;;;;3.30;71.94;101662.50;5039174;28;20085;-75
2021/04/27 01:20:40;;;;;;;11.73;4.35;;;;;;;3.23;73.21;101658.00;5040497;28;20067;-75
2021/04/27 01:23:25;;;;;;;11.45;4.25;;;;;;;3.22;72.00;101661.50;5040417;28;20084;-75
2021/04/27 01:25:59;;;;;;;11.13;4.65;;;;;;;3.14;72.48;101663.16;5039092;28;20084;-74
2021/04/27 01:28:29;;;;;;;10.27;4.68;;;;;;;3.08;72.84;101661.38;5041006;28;20061;-74
2021/04/27 01:30:57;;;;;;;8.63;3.83;;;;;;;3.05;72.90;101663.03;5051104;28;20053;-74
2021/04/27 01:33:27;;;;;;;10.55;5.25;;;;;;;2.99;74.08;101662.09;5039030;28;20061;-74
2021/04/27 01:35:55;;;;;;;11.90;4.80;;;;;;;2.96;73.39;101664.72;5039488;28;20089;-74
2021/04/27 01:38:23;;;;;;;8.23;4.07;;;;;;;2.96;73.34;101651.56;5041540;28;20152;-74
2021/04/27 01:40:52;;;;;;;14.32;5.05;;;;;;;2.90;74.05;101656.72;5039803;28;20337;-74
2021/04/27 01:43:20;;;;;;;13.70;5.15;;;;;;;2.89;74.07;101654.94;5042549;28;20065;-74
2021/04/27 01:45:49;;;;;;;10.48;4.43;;;;;;;2.87;74.00;101650.53;5039724;28;20071;-74
2021/04/27 01:48:17;;;;;;;10.20;4.63;;;;;;;2.80;74.39;101647.81;5044488;28;20072;-73
2021/04/27 01:50:44;;;;;;;8.20;4.72;;;;;;;2.78;74.50;101639.00;5037415;28;20134;-74
2021/04/27 01:53:13;;;;;;;10.75;4.38;;;;;;;2.76;74.36;101643.38;5043942;28;20065;-74
2021/04/27 01:55:40;;;;;;;9.05;4.72;;;;;;;2.74;74.77;101642.47;5038400;28;20064;-74
2021/04/27 01:58:08;;;;;;;11.50;4.63;;;;;;;2.74;74.20;101645.13;5056986;28;20065;-75
2021/04/27 02:00:35;;;;;;;11.82;4.78;;;;;;;2.72;74.16;101638.91;5036413;28;20056;-73
2021/04/27 02:03:04;;;;;;;10.77;4.43;;;;;;;2.75;74.61;101643.34;5042898;28;20072;-75
2021/04/27 02:05:32;;;;;;;8.27;4.47;;;;;;;2.72;74.73;101635.41;5038766;28;20067;-75
2021/04/27 02:07:59;;;;;;;16.23;6.45;;;;;;;2.67;74.92;101639.72;5042532;28;20140;-74
2021/04/27 02:10:26;;;;;;;11.10;4.80;;;;;;;2.65;75.02;101644.97;5040021;28;20072;-73
2021/04/27 02:12:56;;;;;;;10.73;5.20;;;;;;;2.62;75.04;101631.75;5036703;28;20464;-74
2021/04/27 02:15:25;;;;;;;12.60;5.18;;;;;;;2.60;75.73;101634.38;5040927;28;20073;-74
2021/04/27 02:17:57;;;;;;;10.77;4.75;;;;;;;2.59;75.82;101626.47;5037009;28;20069;-75
2021/04/27 02:20:28;;;;;;;11.50;4.70;;;;;;;2.60;75.60;101622.94;5053509;28;21583;-74
2021/04/27 02:23:02;;;;;;;12.23;4.80;;;;;;;2.60;75.53;101620.31;5039181;28;20057;-73
2021/04/27 02:25:30;;;;;;;15.88;5.15;;;;;;;2.57;75.53;101626.44;5040769;28;20067;-74
2021/04/27 02:27:58;;;;;;;10.90;5.40;;;;;;;2.57;75.81;101607.09;5037380;28;20140;-74
2021/04/27 02:30:27;;;;;;;12.90;4.93;;;;;;;2.55;75.52;101614.97;5040355;28;20048;-75
2021/04/27 02:32:54;;;;;;;14.88;6.43;;;;;;;2.54;75.71;101613.22;5053630;28;20519;-74
2021/04/27 02:35:22;;;;;;;11.88;5.93;;;;;;;2.52;75.92;101609.69;5038747;28;20063;-74
2021/04/27 02:37:52;;;;;;;13.68;5.80;;;;;;;2.53;75.83;101610.56;5036487;28;20052;-74
2021/04/27 02:40:22;;;;;;;11.55;5.32;;;;;;;2.53;75.59;101610.56;5042495;28;20092;-74
2021/04/27 02:42:51;;;;;;;12.60;5.45;;;;;;;2.52;75.61;101600.88;5036907;28;20059;-75
2021/04/27 02:45:19;;;;;;;10.13;4.80;;;;;;;2.50;75.82;101599.97;5040999;28;20420;-74
2021/04/27 02:47:46;;;;;;;14.45;5.07;;;;;;;2.48;76.03;101593.81;5050109;28;20071;-74
2021/04/27 02:50:15;;;;;;;12.63;5.68;;;;;;;2.51;75.72;101604.41;5041978;28;20060;-74
2021/04/27 02:52:43;;;;;;;9.75;5.03;;;;;;;2.48;75.44;101602.59;5037575;28;20064;-74
2021/04/27 02:55:13;;;;;;;13.13;5.35;;;;;;;2.47;75.39;101599.94;5051781;28;20623;-74
2021/04/27 02:57:40;;;;;;;14.18;5.03;;;;;;;2.48;75.20;101594.69;5038067;28;20061;-74
2021/04/27 03:00:08;;;;;;;11.85;5.43;;;;;;;2.50;75.34;101592.06;5039279;28;20096;-74
2021/04/27 03:02:35;;;;;;;11.30;5.00;;;;;;;2.46;75.40;101593.78;5038127;28;20068;-74
2021/04/27 03:05:02;;;;;;;12.93;4.82;;;;;;;2.49;75.02;101596.47;5037960;28;20151;-74
2021/04/27 03:07:29;;;;;;;14.00;5.90;;;;;;;2.45;75.29;101585.88;5039624;28;20061;-74
2021/04/27 03:09:56;;;;;;;11.18;5.35;;;;;;;2.47;74.38;101585.03;5036027;28;20079;-74
2021/04/27 03:12:24;;;;;;;14.45;5.03;;;;;;;2.50;74.44;101578.91;5040253;28;20171;-75
2021/04/27 03:14:51;;;;;;;12.88;5.72;;;;;;;2.47;74.85;101578.84;5035390;28;20479;-74
2021/04/27 03:17:18;;;;;;;10.35;5.32;;;;;;;2.42;74.62;101579.69;5039412;28;20138;-75
2021/04/27 03:19:45;;;;;;;15.50;5.10;;;;;;;2.36;74.77;101574.34;5036761;28;20079;-75
2021/04/27 03:22:12;;;;;;;15.05;5.60;;;;;;;2.37;74.64;101569.97;5038963;28;20151;-75
2021/04/27 03:24:39;;;;;;;15.25;5.55;;;;;;;2.36;74.81;101557.66;5038162;28;20175;-74
2021/04/27 03:27:06;;;;;;;12.45;5.22;;;;;;;2.34;74.73;101559.38;5040381;28;20056;-75
2021/04/27 03:29:34;;;;;;;11.35;5.72;;;;;;;2.33;74.56;101555.84;5039643;28;20516;-74
2021/04/27 03:32:01;;;;;;;9.90;4.70;;;;;;;2.33;74.51;101563.75;5036977;28;20123;-74
2021/04/27 03:34:28;;;;;;;11.25;5.25;;;;;;;2.33;74.41;101561.13;5037287;28;20347;-74
2021/04/27 03:37:00;;;;;;;12.18;5.10;;;;;;;2.32;74.30;101569.03;5039555;28;20130;-74
2021/04/27 03:39:27;;;;;;;8.63;4.80;;;;;;;2.31;74.45;101569.88;5037753;28;20563;-74
2021/04/27 03:41:55;;;;;;;9.05;4.32;;;;;;;2.32;74.34;101572.53;5038174;28;20079;-74
2021/04/27 03:44:22;;;;;;;9.35;4.50;;;;;;;2.32;74.15;101566.41;5036508;28;20364;-74
2021/04/27 03:46:50;;;;;;;12.02;4.72;;;;;;;2.34;74.05;101565.53;5037701;28;20057;-75
2021/04/27 03:49:17;;;;;;;10.68;4.38;;;;;;;2.32;74.52;101566.41;5038831;28;20376;-74
2021/04/27 03:51:44;;;;;;;11.20;5.55;;;;;;;2.37;74.30;101559.44;5035520;28;20490;-74
2021/04/27 03:54:11;;;;;;;10.18;4.93;;;;;;;2.39;74.17;101553.31;5034029;28;20096;-73
2021/04/27 03:56:38;;;;;;;11.00;5.63;;;;;;;2.39;73.88;101544.53;5037569;28;20152;-74
2021/04/27 03:59:05;;;;;;;11.80;5.20;;;;;;;2.36;73.58;101555.03;5038923;28;20069;-74
2021/04/27 04:01:33;;;;;;;10.00;4.70;;;;;;;2.35;73.95;101547.97;5033859;28;21191;-74
2021/04/27 04:04:01;;;;;;;12.95;5.68;;;;;;;2.37;73.84;101548.91;5038566;28;20084;-74
2021/04/27 04:06:28;;;;;;;12.35;4.93;;;;;;;2.37;73.48;101547.16;5036132;28;20372;-74
2021/04/27 04:08:55;;;;;;;10.50;5.20;;;;;;;2.38;73.59;101546.28;5038419;28;20060;-74
2021/04/27 04:11:23;;;;;;;12.52;4.93;;;;;;;2.39;73.72;101542.78;5035544;28;20068;-74
2021/04/27 04:13:50;;;;;;;11.50;4.57;;;;;;;2.40;73.23;101539.28;5039327;28;20084;-74
2021/04/27 04:16:17;;;;;;;7.72;3.65;;;;;;;2.45;73.60;101547.22;5037582;28;20065;-74
2021/04/27 04:18:44;;;;;;;11.70;5.20;;;;;;;2.45;73.07;101543.72;5039144;28;20463;-74
2021/04/27 04:21:12;;;;;;;11.75;4.95;;;;;;;2.45;73.26;101543.72;5037434;28;20059;-71
2021/04/27 04:23:39;;;;;;;12.63;5.32;;;;;;;2.46;73.13;101535.84;5037949;28;20175;-75
2021/04/27 04:26:06;;;;;;;12.60;5.65;;;;;;;2.52;72.68;101537.66;5037456;28;20065;-73
2021/04/27 04:28:33;;;;;;;10.77;4.68;;;;;;;2.57;72.79;101531.59;5035076;28;20096;-75
2021/04/27 04:31:00;;;;;;;12.50;5.72;;;;;;;2.62;72.88;101528.97;5038431;28;20067;-75
2021/04/27 04:33:27;;;;;;;10.88;4.68;;;;;;;2.67;72.99;101529.91;5035255;28;20144;-75
2021/04/27 04:35:54;;;;;;;9.85;4.68;;;;;;;2.69;72.32;101528.22;5036593;28;20478;-74
2021/04/27 04:38:23;;;;;;;12.25;5.47;;;;;;;2.74;72.04;101529.16;5034756;28;20602;-74
2021/04/27 04:40:50;;;;;;;10.90;5.25;;;;;;;2.75;72.46;101530.91;5032776;28;20431;-74
2021/04/27 04:43:18;;;;;;;9.60;4.88;;;;;;;2.76;71.58;101523.91;5037940;28;20072;-73
2021/04/27 04:45:45;;;;;;;10.07;4.88;;;;;;;2.80;72.16;101520.41;5039969;28;20096;-74
2021/04/27 04:48:12;;;;;;;12.10;5.15;;;;;;;2.76;71.84;101522.13;5039867;28;20082;-70
2021/04/27 04:50:40;;;;;;;10.77;4.90;;;;;;;2.80;72.01;101526.56;5041829;28;20057;-70
2021/04/27 04:53:08;;;;;;;11.20;4.72;;;;;;;2.88;72.02;101524.03;5040358;28;20471;-70
2021/04/27 04:55:36;;;;;;;12.95;5.47;;;;;;;2.90;71.65;101522.28;5040442;28;20061;-71
2021/04/27 04:58:04;;;;;;;12.63;5.95;;;;;;;2.96;71.79;101526.72;5039015;28;20073;-71
2021/04/27 05:00:31;;;;;;;11.57;5.80;;;;;;;2.98;71.60;101532.91;5040785;28;20080;-71
2021/04/27 05:02:58;;;;;;;11.05;5.15;;;;;;;3.02;71.48;101532.06;5039940;28;20436;-71
2021/04/27 05:05:26;;;;;;;14.35;5.07;;;;;;;3.02;71.19;101525.91;5038645;28;20088;-71
2021/04/27 05:08:02;;;;;;;12.75;5.32;;;;;;;3.07;71.23;101529.50;5041623;28;20064;-69
2021/04/27 05:10:29;;;;;;;10.20;5.32;;;;;;;3.07;71.64;101522.44;5040665;28;20140;-71
2021/04/27 05:12:58;;;;;;;9.25;5.18;;;;;;;3.12;71.45;101519.88;5041943;28;20123;-70
2021/04/27 05:15:25;;;;;;;10.85;4.95;;;;;;;3.13;71.26;101517.25;5039933;28;20057;-70
2021/04/27 05:17:52;;;;;;;11.40;5.70;;;;;;;3.20;71.42;101507.59;5041090;28;21098;-70
2021/04/27 05:20:20;;;;;;;10.93;5.45;;;;;;;3.21;71.80;101514.66;5039184;28;20065;-71
2021/04/27 05:22:47;;;;;;;11.18;5.57;;;;;;;3.35;70.98;101520.97;5042025;28;20068;-70
2021/04/27 05:25:15;;;;;;;10.00;5.10;;;;;;;3.43;70.76;101528.94;5040856;28;20528;-70
2021/04/27 05:27:43;;;;;;;10.85;4.95;;;;;;;3.52;70.67;101521.09;5043433;28;20069;-75
2021/04/27 05:30:12;;;;;;;9.13;4.95;;;;;;;3.69;70.60;101525.59;5042130;28;20083;-75
2021/04/27 05:32:39;;;;;;;10.13;5.32;;;;;;;3.83;69.88;101520.41;5042599;28;20144;-75
2021/04/27 05:35:08;;;;;;;10.48;4.30;;;;;;;3.96;69.46;101521.38;5036894;28;20073;-70
2021/04/27 05:37:35;;;;;;;13.35;5.32;;;;;;;4.22;68.34;101513.59;5041106;28;20309;-71
2021/04/27 05:40:09;;;;;;;13.13;6.03;;;;;;;4.44;67.32;101509.28;5034089;28;20064;-72
2021/04/27 05:42:37;;;;;;;11.57;5.45;;;;;;;4.66;66.60;101510.25;5042229;28;20308;-71
2021/04/27 05:45:06;;;;;;;15.10;5.20;;;;;;;4.66;66.32;101511.13;5039358;28;20134;-71
2021/04/27 05:47:33;;;;;;;12.82;5.10;;;;;;;4.71;66.58;101513.78;5040954;28;20071;-71
2021/04/27 05:50:00;;;;;;;10.18;4.65;;;;;;;4.66;66.25;101512.88;5038743;28;20069;-72
2021/04/27 05:52:28;;;;;;;13.45;5.30;;;;;;;4.54;66.55;101512.84;5039912;28;20067;-72
2021/04/27 05:54:55;;;;;;;12.15;6.28;;;;;;;4.60;66.30;101511.13;5040996;28;20160;-71
2021/04/27 05:57:22;;;;;;;10.43;5.40;;;;;;;4.66;66.74;101518.19;5040731;28;20155;-71
2021/04/27 05:59:49;;;;;;;11.18;5.45;;;;;;;4.67;66.26;101512.91;5042544;28;20056;-71
2021/04/27 06:02:16;;;;;;;12.82;6.25;;;;;;;4.68;66.33;101521.69;5039437;28;20273;-70
2021/04/27 06:04:44;;;;;;;10.75;5.80;;;;;;;4.77;66.48;101524.41;5040568;28;20122;-70
2021/04/27 06:07:11;;;;;;;9.75;5.32;;;;;;;4.77;66.46;101516.47;5040603;28;20156;-71
2021/04/27 06:09:38;;;;;;;9.43;5.20;;;;;;;4.82;66.22;101517.34;5040131;28;20147;-71
2021/04/27 06:12:06;;;;;;;12.85;5.75;;;;;;;4.84;65.80;101526.16;5038180;28;20089;-71
2021/04/27 06:14:33;;;;;;;12.38;6.10;;;;;;;4.88;65.37;101526.19;5042913;28;20074;-71
2021/04/27 06:17:00;;;;;;;10.95;5.95;;;;;;;4.98;65.74;101530.63;5035705;28;20057;-71
2021/04/27 06:19:27;;;;;;;12.35;5.82;;;;;;;5.07;65.30;101533.25;5040405;28;20068;-71
2021/04/27 06:21:55;;;;;;;11.98;5.72;;;;;;;5.10;64.56;101532.41;5054721;28;20119;-71
2021/04/27 06:24:22;;;;;;;11.82;5.63;;;;;;;5.18;64.80;101531.53;5041268;28;20507;-70
2021/04/27 06:27:09;;;;;;;13.10;6.45;;;;;;;5.27;63.55;101520.06;5039150;28;20057;-72
2021/04/27 06:29:47;;;;;;;13.27;6.32;;;;;;;5.29;63.38;101518.28;5040809;28;20069;-71
2021/04/27 06:32:15;;;;;;;13.60;6.70;;;;;;;5.32;63.51;101512.13;5038039;28;20057;-75
2021/04/27 06:34:42;;;;;;;12.88;6.90;;;;;;;5.35;63.38;101504.19;5042235;28;20156;-75
2021/04/27 06:37:10;;;;;;;12.02;6.35;;;;;;;5.53;62.96;101513.88;5038205;28;20211;-75
2021/04/27 06:39:38;;;;;;;10.35;5.97;;;;;;;5.67;62.82;101509.47;5056369;28;20283;-74
2021/04/27 06:42:05;;;;;;;10.57;5.75;;;;;;;5.66;63.50;101501.53;5040259;28;20145;-75
2021/04/27 06:44:33;;;;;;;12.25;5.47;;;;;;;5.82;62.88;101502.38;5038425;28;20092;-75
2021/04/27 06:47:00;;;;;;;13.98;6.35;;;;;;;5.83;62.54;101496.22;5039400;28;20063;-74
2021/04/27 06:49:28;;;;;;;16.48;6.18;;;;;;;5.91;62.70;101490.00;5036382;28;20060;-73
2021/04/27 06:51:55;;;;;;;11.70;6.25;;;;;;;6.04;62.63;101495.31;5039119;28;20062;-74
2021/04/27 06:54:23;;;;;;;11.98;6.13;;;;;;;6.03;62.31;101496.19;5038939;28;20083;-75
2021/04/27 06:56:50;;;;;;;12.27;6.57;;;;;;;6.22;62.24;101487.28;5037605;28;20092;-74
2021/04/27 06:59:35;;;;;;;11.68;6.82;;;;;;;6.39;61.53;101483.72;5038758;28;20358;-75
2021/04/27 07:02:04;;;;;;;11.52;5.68;;;;;;;6.47;61.15;101477.47;5039982;28;20454;-75
2021/04/27 07:04:36;;;;;;;13.80;7.22;;;;;;;6.56;60.79;101479.19;5039489;28;20064;-75
2021/04/27 07:07:03;;;;;;;12.05;6.90;;;;;;;6.70;60.67;101473.81;5038724;28;20065;-75
2021/04/27 07:09:31;;;;;;;12.60;7.22;;;;;;;6.79;60.37;101471.09;5039261;28;20060;-76
2021/04/27 07:11:58;;;;;;;12.13;6.53;;;;;;;6.69;59.71;101470.28;5038912;28;20060;-75
2021/04/27 07:14:26;;;;;;;14.77;6.82;;;;;;;6.96;59.75;101475.41;5038183;28;20057;-75
2021/04/27 07:16:53;;;;;;;12.60;7.60;;;;;;;7.06;59.02;101472.66;5041845;28;20060;-74
2021/04/27 07:19:21;;;;;;;13.02;6.80;;;;;;;7.24;58.44;101468.13;5040252;28;20084;-75
2021/04/27 07:21:48;;;;;;;14.88;7.05;;;;;;;7.09;57.08;101475.31;5039923;28;20091;-75
2021/04/27 07:24:15;;;;;;;15.57;7.43;;;;;;;7.29;57.01;101467.19;5037575;28;20069;-75
2021/04/27 07:26:45;;;;;;;10.75;7.15;;;;;;;7.35;57.00;101471.56;5039873;28;20065;-76
2021/04/27 07:29:12;;;;;;;16.00;8.00;;;;;;;7.44;56.05;101474.16;5039919;28;20067;-75
2021/04/27 07:31:40;;;;;;;10.25;6.43;;;;;;;7.55;56.46;101467.84;5054038;28;20083;-75
2021/04/27 07:34:07;;;;;;;14.10;6.68;;;;;;;7.74;55.66;101469.41;5033395;28;20049;-75
2021/04/27 07:36:35;;;;;;;15.63;7.80;;;;;;;7.84;56.04;101465.78;5038027;28;20130;-75
2021/04/27 07:39:05;;;;;;;12.60;6.80;;;;;;;7.69;55.76;101462.41;5038722;28;20079;-75
2021/04/27 07:41:33;;;;;;;10.77;6.47;;;;;;;7.70;54.76;101458.88;5037593;28;20637;-75
2021/04/27 07:44:00;;;;;;;10.43;6.70;;;;;;;7.98;54.92;101449.66;5039638;28;20472;-75
2021/04/27 07:46:27;;;;;;;13.02;7.28;;;;;;;8.65;53.36;101455.06;5036677;28;20064;-75
2021/04/27 07:48:55;;;;;;;13.00;6.97;;;;;;;9.43;51.68;101447.63;5039911;28;20071;-72
2021/04/27 07:51:24;;;;;;;12.25;7.55;;;;;;;9.31;51.47;101453.13;5036212;28;20103;-72
2021/04/27 07:53:51;;;;;;;13.68;7.13;;;;;;;9.96;48.63;101444.84;5039318;28;20144;-72
2021/04/27 07:56:19;;;;;;;11.38;6.38;;;;;;;10.31;47.99;101451.25;5034359;28;20071;-72
2021/04/27 07:58:46;;;;;;;12.23;7.05;;;;;;;10.71;47.60;101441.50;5041520;28;20057;-71
2021/04/27 08:01:14;;;;;;;13.07;6.72;;;;;;;10.82;46.66;101444.81;5034907;28;20068;-71
2021/04/27 08:03:41;;;;;;;13.88;6.93;;;;;;;11.19;46.46;101439.47;5040057;28;20645;-72
2021/04/27 08:06:09;;;;;;;14.68;8.05;;;;;;;11.17;46.19;101430.59;5038013;28;20088;-71
2021/04/27 08:08:35;;;;;;;14.20;7.85;;;;;;;11.10;45.32;101433.47;5037385;28;20103;-71
2021/04/27 08:11:03;;;;;;;12.80;8.10;;;;;;;11.28;45.67;101434.81;5035170;28;20083;-71
2021/04/27 08:13:30;;;;;;;12.35;7.18;;;;;;;11.72;44.04;101430.94;5039886;28;20151;-71
2021/04/27 08:15:57;;;;;;;11.25;6.88;;;;;;;11.54;44.42;101426.09;5037503;28;20060;-71
2021/04/27 08:18:26;;;;;;;15.05;7.53;;;;;;;12.00;43.02;101427.53;5036549;28;20063;-71
2021/04/27 08:20:54;;;;;;;13.00;7.57;;;;;;;12.15;43.46;101426.22;5038746;28;20289;-71
2021/04/27 08:23:22;;;;;;;12.07;6.28;;;;;;;12.24;42.90;101420.59;5033016;28;20073;-71
2021/04/27 08:26:05;;;;;;;13.68;7.35;;;;;;;12.30;42.36;101423.06;5037865;28;20061;-76
2021/04/27 08:28:33;;;;;;;10.68;6.68;;;;;;;12.18;42.20;101426.13;5035578;28;20084;-76
2021/04/27 08:31:00;;;;;;;12.25;7.45;;;;;;;11.81;42.56;101424.47;5039968;28;20064;-76
2021/04/27 08:33:28;;;;;;;13.23;7.13;;;;;;;12.12;42.07;101421.84;5038666;28;20079;-75
2021/04/27 08:35:55;;;;;;;10.75;6.97;;;;;;;12.29;42.33;101423.13;5038367;28;20066;-76
2021/04/27 08:38:23;;;;;;;13.68;7.20;;;;;;;12.20;41.37;101418.06;5037887;28;20057;-76
2021/04/27 08:40:51;;;;;;;11.48;6.97;;;;;;;12.48;41.70;101412.72;5039029;28;20065;-75
2021/04/27 08:43:19;;;;;;;13.93;7.30;;;;;;;12.27;41.71;101409.78;5039142;28;20057;-76
2021/04/27 08:45:46;;;;;;;13.40;7.35;;;;;;;12.62;41.31;101410.50;5040757;28;20111;-75
2021/04/27 08:48:15;;;;;;;12.80;7.40;;;;;;;11.71;42.42;101396.22;5036301;28;20071;-71
2021/04/27 08:50:45;;;;;;;12.95;7.50;;;;;;;12.58;41.72;101402.63;5038475;28;20060;-76
2021/04/27 08:53:12;;;;;;;11.45;7.03;;;;;;;12.38;41.50;101401.44;5038804;28;20069;-75
2021/04/27 08:55:40;;;;;;;13.77;6.90;;;;;;;12.40;41.18;101396.06;5039336;28;20065;-76
2021/04/27 08:58:08;;;;;;;11.52;6.93;;;;;;;12.45;41.41;101396.78;5035092;28;20617;-72
2021/04/27 09:00:37;;;;;;;11.18;6.95;;;;;;;12.58;40.96;101394.59;5040375;28;20095;-71
2021/04/27 09:03:09;;;;;;;11.10;6.80;;;;;;;12.74;40.04;101398.53;5038862;28;20057;-72
2021/04/27 09:05:38;;;;;;;10.85;6.90;;;;;;;13.19;40.66;101395.25;5039609;28;20342;-71
2021/04/27 09:08:37;;;;;;;12.15;7.00;;;;;;;13.47;39.81;101390.75;5037824;28;20063;-72
2021/04/27 09:11:24;;;;;;;13.18;6.63;;;;;;;13.53;38.96;101379.84;5041463;28;20084;-72
2021/04/27 09:14:16;;;;;;;12.00;6.50;;;;;;;13.48;39.04;101388.03;5035194;28;20064;-72
2021/04/27 09:16:49;;;;;;;13.48;7.60;;;;;;;13.73;38.18;101379.97;5037368;28;20053;-72
2021/04/27 09:19:39;;;;;;;11.93;7.53;;;;;;;13.58;39.08;101381.41;5036414;28;20208;-71
2021/04/27 09:22:12;;;;;;;13.00;7.70;;;;;;;13.86;39.60;101372.38;5034862;28;20290;-71
2021/04/27 09:24:43;;;;;;;13.55;6.95;;;;;;;14.07;39.08;101378.72;5036968;28;20061;-72
2021/04/27 09:27:27;;;;;;;10.75;7.22;;;;;;;13.96;38.19;101370.19;5037906;28;20048;-71
2021/04/27 09:29:54;;;;;;;10.65;7.38;;;;;;;14.27;38.30;101367.22;5040095;28;20057;-71
2021/04/27 09:32:34;;;;;;;11.43;7.32;;;;;;;14.08;39.68;101366.16;5041084;28;20061;-71
2021/04/27 09:35:24;;;;;;;11.95;7.57;;;;;;;14.09;39.03;101366.13;5039904;28;20155;-71
2021/04/27 09:38:11;;;;;;;12.15;7.53;;;;;;;14.56;38.36;101359.81;5040167;28;20131;-71
2021/04/27 09:40:51;;;;;;;10.52;7.13;;;;;;;14.86;38.48;101356.84;5037417;28;20075;-71
2021/04/27 09:43:20;;;;;;;10.90;6.97;;;;;;;14.80;37.18;101355.28;5042149;28;20059;-71
2021/04/27 09:45:50;;;;;;;12.43;7.57;;;;;;;14.60;35.97;101360.59;5039958;28;20053;-71
2021/04/27 09:48:32;;;;;;;12.05;6.78;;;;;;;14.46;37.29;101358.44;5039765;28;20170;-71
2021/04/27 09:51:25;;;;;;;13.95;8.18;;;;;;;14.25;37.16;101357.47;5058077;28;20455;-72
2021/04/27 09:54:12;;;;;;;13.52;7.28;;;;;;;14.98;36.53;101355.44;5040915;28;20061;-72
2021/04/27 09:56:43;;;;;;;10.52;7.43;;;;;;;14.97;36.94;101351.03;5038170;28;20296;-72
2021/04/27 09:59:11;;;;;;;13.48;8.13;;;;;;;14.44;36.47;101353.13;5040301;28;20092;-72
2021/04/27 10:01:39;;;;;;;13.32;7.68;;;;;;;14.77;36.75;101347.34;5034259;28;20423;-72
2021/04/27 10:04:08;;;;;;;12.07;7.95;;;;;;;14.60;35.72;101349.88;5041013;28;20052;-72
2021/04/27 10:06:35;;;;;;;10.63;7.32;;;;;;;14.56;36.70;101335.66;5039144;28;20112;-72
2021/04/27 10:09:04;;;;;;;12.68;7.72;;;;;;;14.25;35.96;101344.06;5040106;28;20146;-71
2021/04/27 10:11:31;;;;;;;13.75;7.88;;;;;;;14.62;37.64;101339.94;5035823;28;20057;-71
2021/04/27 10:14:00;;;;;;;12.40;7.00;;;;;;;15.22;36.30;101326.63;5039775;28;20357;-71
2021/04/27 10:16:27;;;;;;;11.15;7.82;;;;;;;15.47;34.97;101331.81;5037211;28;21005;-71
2021/04/27 10:18:57;;;;;;;10.55;7.25;;;;;;;15.04;34.40;101323.81;5041773;28;20111;-72
2021/04/27 10:21:25;;;;;;;13.63;6.78;;;;;;;15.71;33.96;101323.56;5037145;28;20061;-72
2021/04/27 10:24:12;;;;;;;12.82;7.25;;;;;;;15.10;34.05;101317.28;5040615;28;20089;-72
2021/04/27 10:26:43;;;;;;;12.70;6.93;;;;;;;15.51;34.50;101301.16;5038706;28;20059;-71
2021/04/27 10:29:16;;;;;;;10.93;6.93;;;;;;;15.43;34.51;101300.63;5041076;28;20057;-72
2021/04/27 10:31:44;;;;;;;11.50;6.75;;;;;;;15.37;35.48;101299.06;5036751;28;20192;-71
2021/04/27 10:34:14;;;;;;;11.85;7.40;;;;;;;15.90;35.27;101310.16;5054288;28;20154;-71
2021/04/27 10:37:06;;;;;;;12.50;7.15;;;;;;;15.93;33.55;101293.88;5041480;28;20152;-70
2021/04/27 10:39:39;;;;;;;12.82;7.22;;;;;;;15.67;34.58;101296.81;5055220;28;20355;-71
2021/04/27 10:42:18;;;;;;;10.85;7.20;;;;;;;15.80;34.58;101288.19;5041996;28;20059;-71
2021/04/27 10:44:54;;;;;;;11.80;7.45;;;;;;;15.27;33.97;101292.34;5055468;28;20387;-71
2021/04/27 10:47:24;;;;;;;12.50;7.53;;;;;;;15.50;33.16;101285.97;5044758;28;20095;-70
2021/04/27 10:49:53;;;;;;;12.13;7.72;;;;;;;15.93;33.20;101283.13;5037181;28;20106;-71
2021/04/27 10:52:30;;;;;;;10.60;7.20;;;;;;;15.58;31.50;101278.41;5040810;28;20172;-71
2021/04/27 10:55:23;;;;;;;12.13;7.13;;;;;;;15.40;32.95;101274.75;5037552;28;20464;-71
2021/04/27 10:57:51;;;;;;;12.38;7.63;;;;;;;16.37;32.22;101266.63;5039102;28;20147;-71
2021/04/27 11:00:38;;;;;;;11.60;7.05;;;;;;;16.58;31.32;101268.25;5032799;28;20064;-71
2021/04/27 11:03:14;;;;;;;12.45;6.93;;;;;;;16.10;31.42;101266.16;5037603;28;20061;-70
2021/04/27 11:06:01;;;;;;;13.90;7.47;;;;;;;15.95;30.10;101263.25;5037863;28;20068;-71
2021/04/27 11:08:44;;;;;;;12.55;7.72;;;;;;;15.90;30.75;101259.03;5034329;28;20052;-71
2021/04/27 11:11:20;;;;;;;14.10;7.90;;;;;;;15.75;31.65;101256.16;5041065;28;20156;-71
2021/04/27 11:13:48;;;;;;;12.05;8.00;;;;;;;15.75;30.90;101249.84;5038609;28;20056;-70
2021/04/27 11:16:27;;;;;;;15.98;8.20;;;;;;;16.28;29.91;101248.22;5036770;28;20056;-69
2021/04/27 11:19:10;;;;;;;12.07;7.70;;;;;;;16.49;29.69;101252.53;5035939;28;20053;-70
2021/04/27 11:21:38;;;;;;;14.15;7.47;;;;;;;16.62;29.74;101248.28;5041752;28;20140;-71
2021/04/27 11:24:08;;;;;;;14.43;7.47;;;;;;;15.93;31.00;101242.75;5032699;28;20061;-70
2021/04/27 11:26:45;;;;;;;12.00;7.43;;;;;;;16.43;30.09;101240.28;5041546;28;20180;-72
2021/04/27 11:29:17;;;;;;;12.48;6.93;;;;;;;16.73;28.88;101228.00;5034463;28;20065;-71
2021/04/27 11:31:57;;;;;;;12.68;7.90;;;;;;;15.78;28.89;101241.66;5038634;28;20454;-72
2021/04/27 11:34:25;;;;;;;11.52;6.78;;;;;;;16.03;28.14;101230.59;5035968;28;20416;-72
2021/04/27 11:36:53;;;;;;;10.27;7.03;;;;;;;16.33;28.16;101230.00;5038591;28;20158;-72